sensor_id;sensor_type;location;lat;lon;timestamp;temperature;humidity
19138;DHT22;68178;52.188;5.598;2023-09-19T00:02:14;16.30;99.90
19138;DHT22;68178;52.188;5.598;2023-09-19T00:04:39;16.40;99.90
19138;DHT22;68178;52.188;5.598;2023-09-19T00:07:05;16.40;99.90
19138;DHT22;68178;52.188;5.598;2023-09-19T00:09:31;16.40;99.90
19138;DHT22;68178;52.188;5.598;2023-09-19T00:12:05;16.40;99.90
19138;DHT22;68178;52.188;5.598;2023-09-19T00:14:32;16.40;99.90
19138;DHT22;68178;52.188;5.598;2023-09-19T00:17:01;16.40;99.90
19138;DHT22;68178;52.188;5.598;2023-09-19T00:19:36;16.30;99.90
19138;DHT22;68178;52.188;5.598;2023-09-19T00:22:03;16.30;99.90
19138;DHT22;68178;52.188;5.598;2023-09-19T00:24:29;16.30;99.90
19138;DHT22;68178;52.188;5.598;2023-09-19T00:26:55;16.30;99.90
19138;DHT22;68178;52.188;5.598;2023-09-19T00:29:25;16.20;99.90
19138;DHT22;68178;52.188;5.598;2023-09-19T00:31:55;16.20;99.90
19138;DHT22;68178;52.188;5.598;2023-09-19T00:34:21;16.10;99.90
19138;DHT22;68178;52.188;5.598;2023-09-19T00:36:47;16.10;99.90
19138;DHT22;68178;52.188;5.598;2023-09-19T00:39:12;16.10;99.90
19138;DHT22;68178;52.188;5.598;2023-09-19T00:41:38;16.00;99.90
19138;DHT22;68178;52.188;5.598;2023-09-19T00:44:04;16.00;99.90
19138;DHT22;68178;52.188;5.598;2023-09-19T00:46:31;16.10;99.90
19138;DHT22;68178;52.188;5.598;2023-09-19T00:48:58;16.10;99.90
19138;DHT22;68178;52.188;5.598;2023-09-19T00:51:25;16.10;99.90
19138;DHT22;68178;52.188;5.598;2023-09-19T00:53:52;16.00;99.90
19138;DHT22;68178;52.188;5.598;2023-09-19T00:56:18;16.00;99.90
19138;DHT22;68178;52.188;5.598;2023-09-19T00:58:44;16.00;99.90
19138;DHT22;68178;52.188;5.598;2023-09-19T01:01:12;16.10;99.90
19138;DHT22;68178;52.188;5.598;2023-09-19T01:03:40;16.10;99.90
19138;DHT22;68178;52.188;5.598;2023-09-19T01:06:06;16.10;99.90
19138;DHT22;68178;52.188;5.598;2023-09-19T01:08:33;16.10;99.90
19138;DHT22;68178;52.188;5.598;2023-09-19T01:16:35;16.10;99.90
19138;DHT22;68178;52.188;5.598;2023-09-19T01:21:52;16.10;99.90
19138;DHT22;68178;52.188;5.598;2023-09-19T01:30:19;16.10;99.90
19138;DHT22;68178;52.188;5.598;2023-09-19T01:32:49;16.10;99.90
19138;DHT22;68178;52.188;5.598;2023-09-19T01:35:18;16.10;99.90
19138;DHT22;68178;52.188;5.598;2023-09-19T01:37:44;16.20;99.90
19138;DHT22;68178;52.188;5.598;2023-09-19T01:40:12;16.20;99.90
19138;DHT22;68178;52.188;5.598;2023-09-19T01:42:50;16.10;99.90
19138;DHT22;68178;52.188;5.598;2023-09-19T01:47:54;16.10;99.90
19138;DHT22;68178;52.188;5.598;2023-09-19T01:50:44;16.00;99.90
19138;DHT22;68178;52.188;5.598;2023-09-19T01:53:33;16.10;99.90
19138;DHT22;68178;52.188;5.598;2023-09-19T01:56:01;16.10;99.90
19138;DHT22;68178;52.188;5.598;2023-09-19T01:58:37;16.10;99.90
19138;DHT22;68178;52.188;5.598;2023-09-19T02:01:05;16.20;99.90
19138;DHT22;68178;52.188;5.598;2023-09-19T02:03:35;16.20;99.90
19138;DHT22;68178;52.188;5.598;2023-09-19T02:06:01;16.20;99.90
19138;DHT22;68178;52.188;5.598;2023-09-19T02:08:29;16.20;99.90
19138;DHT22;68178;52.188;5.598;2023-09-19T02:10:56;16.10;99.90
19138;DHT22;68178;52.188;5.598;2023-09-19T02:13:23;16.20;99.90
19138;DHT22;68178;52.188;5.598;2023-09-19T02:15:53;16.20;99.90
19138;DHT22;68178;52.188;5.598;2023-09-19T02:18:19;16.20;99.90
19138;DHT22;68178;52.188;5.598;2023-09-19T02:20:45;16.10;99.90
19138;DHT22;68178;52.188;5.598;2023-09-19T02:23:11;16.20;99.90
19138;DHT22;68178;52.188;5.598;2023-09-19T02:25:38;16.30;99.90
19138;DHT22;68178;52.188;5.598;2023-09-19T02:28:05;16.20;99.90
19138;DHT22;68178;52.188;5.598;2023-09-19T02:30:31;16.20;99.90
19138;DHT22;68178;52.188;5.598;2023-09-19T02:32:57;16.20;99.90
19138;DHT22;68178;52.188;5.598;2023-09-19T02:35:23;16.20;99.90
19138;DHT22;68178;52.188;5.598;2023-09-19T02:37:49;16.10;99.90
19138;DHT22;68178;52.188;5.598;2023-09-19T02:40:15;16.00;99.90
19138;DHT22;68178;52.188;5.598;2023-09-19T02:42:53;16.00;99.90
19138;DHT22;68178;52.188;5.598;2023-09-19T02:45:20;16.00;99.90
19138;DHT22;68178;52.188;5.598;2023-09-19T02:47:46;16.00;99.90
19138;DHT22;68178;52.188;5.598;2023-09-19T02:50:12;15.90;99.90
19138;DHT22;68178;52.188;5.598;2023-09-19T02:52:40;15.90;99.90
19138;DHT22;68178;52.188;5.598;2023-09-19T02:55:08;15.90;99.90
19138;DHT22;68178;52.188;5.598;2023-09-19T02:57:35;15.90;99.90
19138;DHT22;68178;52.188;5.598;2023-09-19T03:00:09;15.80;99.90
19138;DHT22;68178;52.188;5.598;2023-09-19T03:02:36;15.70;99.90
19138;DHT22;68178;52.188;5.598;2023-09-19T03:05:03;15.70;99.90
19138;DHT22;68178;52.188;5.598;2023-09-19T03:07:29;15.80;99.90
19138;DHT22;68178;52.188;5.598;2023-09-19T03:09:55;15.80;99.90
19138;DHT22;68178;52.188;5.598;2023-09-19T03:12:20;15.70;99.90
19138;DHT22;68178;52.188;5.598;2023-09-19T03:14:46;15.70;99.90
19138;DHT22;68178;52.188;5.598;2023-09-19T03:17:11;15.70;99.90
19138;DHT22;68178;52.188;5.598;2023-09-19T03:19:39;15.60;99.90
19138;DHT22;68178;52.188;5.598;2023-09-19T03:22:05;15.60;99.90
19138;DHT22;68178;52.188;5.598;2023-09-19T03:24:31;15.50;99.90
19138;DHT22;68178;52.188;5.598;2023-09-19T03:26:57;15.50;99.90
19138;DHT22;68178;52.188;5.598;2023-09-19T03:29:23;15.50;99.90
19138;DHT22;68178;52.188;5.598;2023-09-19T03:31:48;15.50;99.90
19138;DHT22;68178;52.188;5.598;2023-09-19T03:34:14;15.50;99.90
19138;DHT22;68178;52.188;5.598;2023-09-19T03:36:39;15.40;99.90
19138;DHT22;68178;52.188;5.598;2023-09-19T03:39:06;15.30;99.90
19138;DHT22;68178;52.188;5.598;2023-09-19T03:41:32;15.30;99.90
19138;DHT22;68178;52.188;5.598;2023-09-19T03:43:58;15.30;99.90
19138;DHT22;68178;52.188;5.598;2023-09-19T03:46:25;15.30;99.90
19138;DHT22;68178;52.188;5.598;2023-09-19T03:48:50;15.30;99.90
19138;DHT22;68178;52.188;5.598;2023-09-19T03:51:16;15.20;99.90
19138;DHT22;68178;52.188;5.598;2023-09-19T03:53:41;15.20;99.90
19138;DHT22;68178;52.188;5.598;2023-09-19T03:56:07;15.20;99.90
19138;DHT22;68178;52.188;5.598;2023-09-19T03:58:33;15.20;99.90
19138;DHT22;68178;52.188;5.598;2023-09-19T04:01:03;15.20;99.90
19138;DHT22;68178;52.188;5.598;2023-09-19T04:03:29;15.20;99.90
19138;DHT22;68178;52.188;5.598;2023-09-19T04:06:01;15.10;99.90
19138;DHT22;68178;52.188;5.598;2023-09-19T04:08:27;15.10;99.90
19138;DHT22;68178;52.188;5.598;2023-09-19T04:10:52;15.00;99.90
19138;DHT22;68178;52.188;5.598;2023-09-19T04:13:18;15.00;99.90
19138;DHT22;68178;52.188;5.598;2023-09-19T04:15:44;14.90;99.90
19138;DHT22;68178;52.188;5.598;2023-09-19T04:18:11;14.90;99.90
19138;DHT22;68178;52.188;5.598;2023-09-19T04:20:37;15.10;99.90
19138;DHT22;68178;52.188;5.598;2023-09-19T04:23:03;15.00;99.90
19138;DHT22;68178;52.188;5.598;2023-09-19T04:25:30;14.90;99.90
19138;DHT22;68178;52.188;5.598;2023-09-19T04:27:56;14.90;99.90
19138;DHT22;68178;52.188;5.598;2023-09-19T04:30:21;14.90;99.90
19138;DHT22;68178;52.188;5.598;2023-09-19T04:32:47;14.90;99.90
19138;DHT22;68178;52.188;5.598;2023-09-19T04:35:16;14.90;99.90
19138;DHT22;68178;52.188;5.598;2023-09-19T04:37:41;15.00;99.90
19138;DHT22;68178;52.188;5.598;2023-09-19T04:40:08;15.00;99.90
19138;DHT22;68178;52.188;5.598;2023-09-19T04:42:38;15.00;99.90
19138;DHT22;68178;52.188;5.598;2023-09-19T04:45:04;15.00;99.90
19138;DHT22;68178;52.188;5.598;2023-09-19T04:47:30;15.00;99.90
19138;DHT22;68178;52.188;5.598;2023-09-19T04:49:56;14.80;99.90
19138;DHT22;68178;52.188;5.598;2023-09-19T04:52:23;15.00;99.90
19138;DHT22;68178;52.188;5.598;2023-09-19T04:54:49;15.00;99.90
19138;DHT22;68178;52.188;5.598;2023-09-19T04:57:14;15.00;99.90
19138;DHT22;68178;52.188;5.598;2023-09-19T04:59:41;15.00;99.90
19138;DHT22;68178;52.188;5.598;2023-09-19T05:02:06;14.90;99.90
19138;DHT22;68178;52.188;5.598;2023-09-19T05:04:33;14.80;99.90
19138;DHT22;68178;52.188;5.598;2023-09-19T05:06:59;14.90;99.90
19138;DHT22;68178;52.188;5.598;2023-09-19T05:09:26;14.90;99.90
19138;DHT22;68178;52.188;5.598;2023-09-19T05:11:52;15.00;99.90
19138;DHT22;68178;52.188;5.598;2023-09-19T05:14:18;15.00;99.90
19138;DHT22;68178;52.188;5.598;2023-09-19T05:16:44;14.90;99.90
19138;DHT22;68178;52.188;5.598;2023-09-19T05:19:09;14.80;99.90
19138;DHT22;68178;52.188;5.598;2023-09-19T05:21:37;14.90;99.90
19138;DHT22;68178;52.188;5.598;2023-09-19T05:24:05;14.90;99.90
19138;DHT22;68178;52.188;5.598;2023-09-19T05:26:34;14.80;99.90
19138;DHT22;68178;52.188;5.598;2023-09-19T05:29:00;14.80;99.90
19138;DHT22;68178;52.188;5.598;2023-09-19T05:31:28;14.80;99.90
19138;DHT22;68178;52.188;5.598;2023-09-19T05:33:54;15.20;99.90
19138;DHT22;68178;52.188;5.598;2023-09-19T05:36:20;14.80;99.90
19138;DHT22;68178;52.188;5.598;2023-09-19T05:38:46;14.90;99.90
19138;DHT22;68178;52.188;5.598;2023-09-19T05:41:15;14.90;99.90
19138;DHT22;68178;52.188;5.598;2023-09-19T05:43:41;14.90;99.90
19138;DHT22;68178;52.188;5.598;2023-09-19T05:46:07;14.90;99.90
19138;DHT22;68178;52.188;5.598;2023-09-19T05:48:33;14.90;99.90
19138;DHT22;68178;52.188;5.598;2023-09-19T05:50:59;14.90;99.90
19138;DHT22;68178;52.188;5.598;2023-09-19T05:53:26;15.10;99.90
19138;DHT22;68178;52.188;5.598;2023-09-19T05:55:52;15.00;99.90
19138;DHT22;68178;52.188;5.598;2023-09-19T05:58:19;14.90;99.90
19138;DHT22;68178;52.188;5.598;2023-09-19T06:00:45;14.90;99.90
19138;DHT22;68178;52.188;5.598;2023-09-19T06:03:12;15.00;99.90
19138;DHT22;68178;52.188;5.598;2023-09-19T06:05:39;14.90;99.90
19138;DHT22;68178;52.188;5.598;2023-09-19T06:08:07;14.90;99.90
19138;DHT22;68178;52.188;5.598;2023-09-19T06:10:33;14.90;99.90
19138;DHT22;68178;52.188;5.598;2023-09-19T06:13:01;15.00;99.90
19138;DHT22;68178;52.188;5.598;2023-09-19T06:15:29;15.00;99.90
19138;DHT22;68178;52.188;5.598;2023-09-19T06:17:58;15.10;99.90
19138;DHT22;68178;52.188;5.598;2023-09-19T06:20:25;15.00;99.90
19138;DHT22;68178;52.188;5.598;2023-09-19T06:22:52;15.00;99.90
19138;DHT22;68178;52.188;5.598;2023-09-19T06:25:17;15.10;99.90
19138;DHT22;68178;52.188;5.598;2023-09-19T06:27:51;15.10;99.90
19138;DHT22;68178;52.188;5.598;2023-09-19T06:30:21;15.20;99.90
19138;DHT22;68178;52.188;5.598;2023-09-19T06:32:49;15.30;99.90
19138;DHT22;68178;52.188;5.598;2023-09-19T06:35:15;15.30;99.90
19138;DHT22;68178;52.188;5.598;2023-09-19T06:37:42;15.40;99.90
19138;DHT22;68178;52.188;5.598;2023-09-19T06:40:09;15.50;99.90
19138;DHT22;68178;52.188;5.598;2023-09-19T06:42:41;15.50;99.90
19138;DHT22;68178;52.188;5.598;2023-09-19T06:45:07;15.50;99.90
19138;DHT22;68178;52.188;5.598;2023-09-19T06:47:33;15.60;99.90
19138;DHT22;68178;52.188;5.598;2023-09-19T06:49:58;15.60;99.90
19138;DHT22;68178;52.188;5.598;2023-09-19T06:52:24;15.50;99.90
19138;DHT22;68178;52.188;5.598;2023-09-19T06:54:51;15.50;99.90
19138;DHT22;68178;52.188;5.598;2023-09-19T06:57:17;15.60;99.90
19138;DHT22;68178;52.188;5.598;2023-09-19T06:59:43;15.70;99.90
19138;DHT22;68178;52.188;5.598;2023-09-19T07:02:10;15.70;99.90
19138;DHT22;68178;52.188;5.598;2023-09-19T07:04:36;15.70;99.90
19138;DHT22;68178;52.188;5.598;2023-09-19T07:07:01;15.70;99.90
19138;DHT22;68178;52.188;5.598;2023-09-19T07:09:27;15.80;99.90
19138;DHT22;68178;52.188;5.598;2023-09-19T07:11:53;15.80;99.90
19138;DHT22;68178;52.188;5.598;2023-09-19T07:14:19;15.70;99.90
19138;DHT22;68178;52.188;5.598;2023-09-19T07:16:45;15.70;99.90
19138;DHT22;68178;52.188;5.598;2023-09-19T07:19:10;15.90;99.90
19138;DHT22;68178;52.188;5.598;2023-09-19T07:21:36;15.90;99.90
19138;DHT22;68178;52.188;5.598;2023-09-19T07:24:04;16.00;99.90
19138;DHT22;68178;52.188;5.598;2023-09-19T07:26:30;16.00;99.90
19138;DHT22;68178;52.188;5.598;2023-09-19T07:28:56;16.10;99.90
19138;DHT22;68178;52.188;5.598;2023-09-19T07:31:23;16.10;99.90
19138;DHT22;68178;52.188;5.598;2023-09-19T07:33:49;16.20;99.90
19138;DHT22;68178;52.188;5.598;2023-09-19T07:36:14;16.20;99.90
19138;DHT22;68178;52.188;5.598;2023-09-19T07:38:41;16.20;99.90
19138;DHT22;68178;52.188;5.598;2023-09-19T07:41:08;16.30;99.90
19138;DHT22;68178;52.188;5.598;2023-09-19T07:43:37;16.30;99.90
19138;DHT22;68178;52.188;5.598;2023-09-19T07:46:05;16.30;99.90
19138;DHT22;68178;52.188;5.598;2023-09-19T07:48:33;16.40;99.90
19138;DHT22;68178;52.188;5.598;2023-09-19T07:51:03;16.40;99.90
19138;DHT22;68178;52.188;5.598;2023-09-19T07:53:29;16.50;99.90
19138;DHT22;68178;52.188;5.598;2023-09-19T07:56:02;16.50;99.90
19138;DHT22;68178;52.188;5.598;2023-09-19T07:58:29;16.70;99.90
19138;DHT22;68178;52.188;5.598;2023-09-19T08:00:54;16.70;99.90
19138;DHT22;68178;52.188;5.598;2023-09-19T08:03:20;16.80;99.90
19138;DHT22;68178;52.188;5.598;2023-09-19T08:05:46;16.80;99.90
19138;DHT22;68178;52.188;5.598;2023-09-19T08:08:11;16.80;99.90
19138;DHT22;68178;52.188;5.598;2023-09-19T08:10:40;16.90;99.90
19138;DHT22;68178;52.188;5.598;2023-09-19T08:13:07;17.00;99.90
19138;DHT22;68178;52.188;5.598;2023-09-19T08:15:37;17.00;99.90
19138;DHT22;68178;52.188;5.598;2023-09-19T08:18:09;17.20;99.90
19138;DHT22;68178;52.188;5.598;2023-09-19T08:20:37;17.30;99.90
19138;DHT22;68178;52.188;5.598;2023-09-19T08:23:03;17.30;99.90
19138;DHT22;68178;52.188;5.598;2023-09-19T08:25:29;17.40;99.90
19138;DHT22;68178;52.188;5.598;2023-09-19T08:27:55;17.40;99.90
19138;DHT22;68178;52.188;5.598;2023-09-19T08:30:26;17.50;99.90
19138;DHT22;68178;52.188;5.598;2023-09-19T08:32:59;17.60;99.90
19138;DHT22;68178;52.188;5.598;2023-09-19T08:35:28;17.60;99.90
19138;DHT22;68178;52.188;5.598;2023-09-19T08:37:54;17.60;99.90
19138;DHT22;68178;52.188;5.598;2023-09-19T08:40:23;17.50;99.90
19138;DHT22;68178;52.188;5.598;2023-09-19T08:42:49;17.60;99.90
19138;DHT22;68178;52.188;5.598;2023-09-19T08:45:15;17.60;99.90
19138;DHT22;68178;52.188;5.598;2023-09-19T08:50:30;17.80;99.90
19138;DHT22;68178;52.188;5.598;2023-09-19T08:53:00;17.90;99.90
19138;DHT22;68178;52.188;5.598;2023-09-19T08:55:29;18.00;99.90
19138;DHT22;68178;52.188;5.598;2023-09-19T08:58:04;18.10;99.90
19138;DHT22;68178;52.188;5.598;2023-09-19T09:00:32;18.20;99.90
19138;DHT22;68178;52.188;5.598;2023-09-19T09:02:59;18.10;99.90
19138;DHT22;68178;52.188;5.598;2023-09-19T09:05:27;18.20;99.90
19138;DHT22;68178;52.188;5.598;2023-09-19T09:07:53;18.10;99.90
19138;DHT22;68178;52.188;5.598;2023-09-19T09:10:22;18.10;99.90
19138;DHT22;68178;52.188;5.598;2023-09-19T09:12:51;18.10;99.90
19138;DHT22;68178;52.188;5.598;2023-09-19T09:15:19;18.20;99.90
19138;DHT22;68178;52.188;5.598;2023-09-19T09:17:47;18.20;99.90
19138;DHT22;68178;52.188;5.598;2023-09-19T09:20:18;18.20;99.90
19138;DHT22;68178;52.188;5.598;2023-09-19T09:22:55;18.30;99.90
19138;DHT22;68178;52.188;5.598;2023-09-19T09:25:22;18.50;99.90
19138;DHT22;68178;52.188;5.598;2023-09-19T09:28:02;18.40;99.90
19138;DHT22;68178;52.188;5.598;2023-09-19T09:30:37;18.40;99.90
19138;DHT22;68178;52.188;5.598;2023-09-19T09:33:12;18.40;99.90
19138;DHT22;68178;52.188;5.598;2023-09-19T09:35:55;18.50;99.90
19138;DHT22;68178;52.188;5.598;2023-09-19T09:38:30;18.40;99.90
19138;DHT22;68178;52.188;5.598;2023-09-19T09:41:09;18.40;99.90
19138;DHT22;68178;52.188;5.598;2023-09-19T09:43:39;18.60;99.90
19138;DHT22;68178;52.188;5.598;2023-09-19T09:46:17;18.60;99.90
19138;DHT22;68178;52.188;5.598;2023-09-19T09:51:49;18.80;99.90
19138;DHT22;68178;52.188;5.598;2023-09-19T09:54:26;18.80;99.90
19138;DHT22;68178;52.188;5.598;2023-09-19T09:57:11;19.00;99.90
19138;DHT22;68178;52.188;5.598;2023-09-19T10:02:13;19.20;99.90
19138;DHT22;68178;52.188;5.598;2023-09-19T10:04:39;19.20;99.90
19138;DHT22;68178;52.188;5.598;2023-09-19T10:07:27;19.20;99.90
19138;DHT22;68178;52.188;5.598;2023-09-19T10:09:56;19.20;99.90
19138;DHT22;68178;52.188;5.598;2023-09-19T10:12:31;19.10;99.90
19138;DHT22;68178;52.188;5.598;2023-09-19T10:14:59;19.00;99.90
19138;DHT22;68178;52.188;5.598;2023-09-19T10:17:25;18.80;99.90
19138;DHT22;68178;52.188;5.598;2023-09-19T10:19:57;18.90;99.90
19138;DHT22;68178;52.188;5.598;2023-09-19T10:22:24;18.80;99.90
19138;DHT22;68178;52.188;5.598;2023-09-19T10:24:53;18.80;99.90
19138;DHT22;68178;52.188;5.598;2023-09-19T10:27:20;18.80;99.90
19138;DHT22;68178;52.188;5.598;2023-09-19T10:29:51;18.70;99.90
19138;DHT22;68178;52.188;5.598;2023-09-19T10:32:22;18.60;99.90
19138;DHT22;68178;52.188;5.598;2023-09-19T10:34:49;18.60;99.90
19138;DHT22;68178;52.188;5.598;2023-09-19T10:37:16;18.80;99.90
19138;DHT22;68178;52.188;5.598;2023-09-19T10:39:45;18.80;99.90
19138;DHT22;68178;52.188;5.598;2023-09-19T10:42:16;18.90;99.90
19138;DHT22;68178;52.188;5.598;2023-09-19T10:44:45;19.10;99.90
19138;DHT22;68178;52.188;5.598;2023-09-19T10:47:12;19.20;99.90
19138;DHT22;68178;52.188;5.598;2023-09-19T10:49:46;19.40;99.90
19138;DHT22;68178;52.188;5.598;2023-09-19T10:52:16;19.70;99.90
19138;DHT22;68178;52.188;5.598;2023-09-19T10:54:49;19.90;99.90
19138;DHT22;68178;52.188;5.598;2023-09-19T10:57:21;20.10;99.90
19138;DHT22;68178;52.188;5.598;2023-09-19T11:06:03;19.80;99.90
19138;DHT22;68178;52.188;5.598;2023-09-19T11:08:57;19.60;99.90
19138;DHT22;68178;52.188;5.598;2023-09-19T11:30:48;19.70;99.90
19138;DHT22;68178;52.188;5.598;2023-09-19T11:43:48;20.40;99.90
19138;DHT22;68178;52.188;5.598;2023-09-19T11:46:13;20.10;99.90
19138;DHT22;68178;52.188;5.598;2023-09-19T11:48:48;19.90;99.90
19138;DHT22;68178;52.188;5.598;2023-09-19T11:51:19;19.70;99.90
19138;DHT22;68178;52.188;5.598;2023-09-19T11:53:49;19.70;99.90
19138;DHT22;68178;52.188;5.598;2023-09-19T11:56:17;19.80;99.90
19138;DHT22;68178;52.188;5.598;2023-09-19T11:58:44;20.00;99.90
19138;DHT22;68178;52.188;5.598;2023-09-19T12:01:13;20.30;99.90
19138;DHT22;68178;52.188;5.598;2023-09-19T12:03:47;20.60;99.90
19138;DHT22;68178;52.188;5.598;2023-09-19T12:06:15;20.70;99.90
19138;DHT22;68178;52.188;5.598;2023-09-19T12:08:44;20.80;99.90
19138;DHT22;68178;52.188;5.598;2023-09-19T12:11:15;20.60;99.90
19138;DHT22;68178;52.188;5.598;2023-09-19T12:13:42;20.50;99.90
19138;DHT22;68178;52.188;5.598;2023-09-19T12:16:14;20.40;99.90
19138;DHT22;68178;52.188;5.598;2023-09-19T12:18:40;20.20;99.90
19138;DHT22;68178;52.188;5.598;2023-09-19T12:21:28;20.10;99.90
19138;DHT22;68178;52.188;5.598;2023-09-19T12:24:06;20.00;99.90
19138;DHT22;68178;52.188;5.598;2023-09-19T12:26:43;20.10;99.90
19138;DHT22;68178;52.188;5.598;2023-09-19T12:29:16;20.10;99.90
19138;DHT22;68178;52.188;5.598;2023-09-19T12:31:54;20.10;99.90
19138;DHT22;68178;52.188;5.598;2023-09-19T12:34:32;20.10;99.90
19138;DHT22;68178;52.188;5.598;2023-09-19T12:37:07;20.10;99.90
19138;DHT22;68178;52.188;5.598;2023-09-19T12:39:43;20.10;99.90
19138;DHT22;68178;52.188;5.598;2023-09-19T12:42:14;20.10;99.90
19138;DHT22;68178;52.188;5.598;2023-09-19T12:44:50;20.00;99.90
19138;DHT22;68178;52.188;5.598;2023-09-19T12:47:27;20.00;99.90
19138;DHT22;68178;52.188;5.598;2023-09-19T12:50:15;19.90;99.90
19138;DHT22;68178;52.188;5.598;2023-09-19T12:52:52;19.80;99.90
19138;DHT22;68178;52.188;5.598;2023-09-19T12:55:29;19.80;99.90
19138;DHT22;68178;52.188;5.598;2023-09-19T13:00:36;19.70;99.90
19138;DHT22;68178;52.188;5.598;2023-09-19T13:06:00;19.60;99.90
19138;DHT22;68178;52.188;5.598;2023-09-19T13:08:39;19.40;99.90
19138;DHT22;68178;52.188;5.598;2023-09-19T13:13:36;19.60;99.90
19138;DHT22;68178;52.188;5.598;2023-09-19T13:16:03;19.70;99.90
19138;DHT22;68178;52.188;5.598;2023-09-19T13:18:30;19.90;99.90
19138;DHT22;68178;52.188;5.598;2023-09-19T13:21:12;20.00;99.90
19138;DHT22;68178;52.188;5.598;2023-09-19T13:24:01;20.20;99.90
19138;DHT22;68178;52.188;5.598;2023-09-19T13:26:33;20.20;99.90
19138;DHT22;68178;52.188;5.598;2023-09-19T13:28:58;20.10;99.90
19138;DHT22;68178;52.188;5.598;2023-09-19T13:31:24;20.00;99.90
19138;DHT22;68178;52.188;5.598;2023-09-19T13:33:50;19.90;99.90
19138;DHT22;68178;52.188;5.598;2023-09-19T13:36:17;19.80;99.90
19138;DHT22;68178;52.188;5.598;2023-09-19T13:38:44;19.60;99.90
19138;DHT22;68178;52.188;5.598;2023-09-19T13:41:10;19.50;99.90
19138;DHT22;68178;52.188;5.598;2023-09-19T13:43:36;19.40;99.90
19138;DHT22;68178;52.188;5.598;2023-09-19T13:46:02;19.50;99.90
19138;DHT22;68178;52.188;5.598;2023-09-19T13:48:28;19.60;99.90
19138;DHT22;68178;52.188;5.598;2023-09-19T13:50:55;19.60;99.90
19138;DHT22;68178;52.188;5.598;2023-09-19T13:53:21;19.70;99.90
19138;DHT22;68178;52.188;5.598;2023-09-19T13:55:47;19.80;99.90
19138;DHT22;68178;52.188;5.598;2023-09-19T13:58:14;19.80;99.90
19138;DHT22;68178;52.188;5.598;2023-09-19T14:00:40;20.00;99.90
19138;DHT22;68178;52.188;5.598;2023-09-19T14:03:06;20.00;99.90
19138;DHT22;68178;52.188;5.598;2023-09-19T14:05:32;20.00;99.90
19138;DHT22;68178;52.188;5.598;2023-09-19T14:07:58;20.00;99.90
19138;DHT22;68178;52.188;5.598;2023-09-19T14:10:28;19.90;99.90
19138;DHT22;68178;52.188;5.598;2023-09-19T14:12:57;19.80;99.90
19138;DHT22;68178;52.188;5.598;2023-09-19T14:15:25;19.80;99.90
19138;DHT22;68178;52.188;5.598;2023-09-19T14:17:58;19.80;99.90
19138;DHT22;68178;52.188;5.598;2023-09-19T14:20:25;19.90;99.90
19138;DHT22;68178;52.188;5.598;2023-09-19T14:22:52;19.90;99.90
19138;DHT22;68178;52.188;5.598;2023-09-19T14:25:18;19.90;99.90
19138;DHT22;68178;52.188;5.598;2023-09-19T14:27:43;19.90;99.90
19138;DHT22;68178;52.188;5.598;2023-09-19T14:30:09;20.00;99.90
19138;DHT22;68178;52.188;5.598;2023-09-19T14:32:35;19.90;99.90
19138;DHT22;68178;52.188;5.598;2023-09-19T14:35:02;19.80;99.90
19138;DHT22;68178;52.188;5.598;2023-09-19T14:37:28;19.80;99.90
19138;DHT22;68178;52.188;5.598;2023-09-19T14:39:54;19.80;99.90
19138;DHT22;68178;52.188;5.598;2023-09-19T14:42:20;19.80;99.90
19138;DHT22;68178;52.188;5.598;2023-09-19T14:44:45;19.80;99.90
19138;DHT22;68178;52.188;5.598;2023-09-19T14:47:12;19.80;99.90
19138;DHT22;68178;52.188;5.598;2023-09-19T14:49:38;19.90;99.90
19138;DHT22;68178;52.188;5.598;2023-09-19T14:52:09;20.10;99.90
19138;DHT22;68178;52.188;5.598;2023-09-19T14:54:35;20.00;99.90
19138;DHT22;68178;52.188;5.598;2023-09-19T14:57:00;20.00;99.90
19138;DHT22;68178;52.188;5.598;2023-09-19T14:59:34;19.80;99.90
19138;DHT22;68178;52.188;5.598;2023-09-19T15:02:06;19.70;99.90
19138;DHT22;68178;52.188;5.598;2023-09-19T15:04:32;19.80;99.90
19138;DHT22;68178;52.188;5.598;2023-09-19T15:06:57;19.70;99.90
19138;DHT22;68178;52.188;5.598;2023-09-19T15:09:25;19.70;99.90
19138;DHT22;68178;52.188;5.598;2023-09-19T15:11:54;19.70;99.90
19138;DHT22;68178;52.188;5.598;2023-09-19T15:14:23;19.60;99.90
19138;DHT22;68178;52.188;5.598;2023-09-19T15:16:50;19.60;99.90
19138;DHT22;68178;52.188;5.598;2023-09-19T15:19:16;19.50;99.90
19138;DHT22;68178;52.188;5.598;2023-09-19T15:21:43;19.30;99.90
19138;DHT22;68178;52.188;5.598;2023-09-19T15:24:11;19.00;99.90
19138;DHT22;68178;52.188;5.598;2023-09-19T15:26:37;18.80;99.90
19138;DHT22;68178;52.188;5.598;2023-09-19T15:29:07;18.60;99.90
19138;DHT22;68178;52.188;5.598;2023-09-19T15:31:33;18.60;99.90
19138;DHT22;68178;52.188;5.598;2023-09-19T15:34:02;18.70;99.90
19138;DHT22;68178;52.188;5.598;2023-09-19T15:36:27;18.70;99.90
19138;DHT22;68178;52.188;5.598;2023-09-19T15:39:01;18.80;99.90
19138;DHT22;68178;52.188;5.598;2023-09-19T15:41:41;18.80;99.90
19138;DHT22;68178;52.188;5.598;2023-09-19T15:44:17;19.00;99.90
19138;DHT22;68178;52.188;5.598;2023-09-19T15:46:44;19.00;99.90
19138;DHT22;68178;52.188;5.598;2023-09-19T15:49:10;19.10;99.90
19138;DHT22;68178;52.188;5.598;2023-09-19T15:51:37;19.00;99.90
19138;DHT22;68178;52.188;5.598;2023-09-19T15:54:08;18.90;99.90
19138;DHT22;68178;52.188;5.598;2023-09-19T15:56:34;18.90;99.90
19138;DHT22;68178;52.188;5.598;2023-09-19T15:59:04;18.90;99.90
19138;DHT22;68178;52.188;5.598;2023-09-19T16:01:29;18.90;99.90
19138;DHT22;68178;52.188;5.598;2023-09-19T16:03:55;19.00;99.90
19138;DHT22;68178;52.188;5.598;2023-09-19T16:06:25;18.90;99.90
19138;DHT22;68178;52.188;5.598;2023-09-19T16:08:53;18.90;99.90
19138;DHT22;68178;52.188;5.598;2023-09-19T16:11:19;18.90;99.90
19138;DHT22;68178;52.188;5.598;2023-09-19T16:13:47;18.90;99.90
19138;DHT22;68178;52.188;5.598;2023-09-19T16:16:13;18.90;99.90
19138;DHT22;68178;52.188;5.598;2023-09-19T16:18:55;18.90;99.90
19138;DHT22;68178;52.188;5.598;2023-09-19T16:21:26;18.90;99.90
19138;DHT22;68178;52.188;5.598;2023-09-19T16:23:53;19.00;99.90
19138;DHT22;68178;52.188;5.598;2023-09-19T16:26:19;19.00;99.90
19138;DHT22;68178;52.188;5.598;2023-09-19T16:28:46;19.00;99.90
19138;DHT22;68178;52.188;5.598;2023-09-19T16:31:12;19.00;99.90
19138;DHT22;68178;52.188;5.598;2023-09-19T16:33:40;19.10;99.90
19138;DHT22;68178;52.188;5.598;2023-09-19T16:36:13;19.10;99.90
19138;DHT22;68178;52.188;5.598;2023-09-19T16:38:40;19.10;99.90
19138;DHT22;68178;52.188;5.598;2023-09-19T16:41:06;19.30;99.90
19138;DHT22;68178;52.188;5.598;2023-09-19T16:43:33;19.20;99.90
19138;DHT22;68178;52.188;5.598;2023-09-19T16:46:06;19.20;99.90
19138;DHT22;68178;52.188;5.598;2023-09-19T16:48:39;19.20;99.90